Boras — TCGU — position and weather

sailwx.info

Track history (hours):
 
Tides and Currents Weather Stations Pressure Air Temp Water Temp Dewpoint Dewpoint Depression Visibility Wind Speed Wind Dir Waves Ship Positions

Boras

Last reported at 2014-Oct-25 22:33 UTC. Time now 2014-Oct-25 23:33 UTC.
Position N 40°58' E 028°56'.

Length 103 m; draft 7.4 m.

Type: Cargo ship. MMSI: 271000352.

Date/timePositionNaut miles runAvg speedWind from/ knotsBaromVisibWave heightAir tempDewpointWater temp
2014-Oct-25 22:33N 40°58' E 028°56'24 7.7
2014-Oct-25 19:29N 41°15' E 029°18'6 6.2
2014-Oct-25 18:33N 41°14' E 029°25'6 6.4
2014-Oct-25 17:34N 41°15' E 029°34'7 7.2
2014-Oct-25 16:31N 41°13' E 029°44'  
2014-Oct-20 04:28N 44°17' E 037°39'7 8.1
2014-Oct-20 03:33N 44°24' E 037°42'8 7.6
2014-Oct-20 02:33N 44°31' E 037°45'8 7.6
2014-Oct-20 01:33N 44°38' E 037°50'3 2.6
2014-Oct-20 00:28N 44°40' E 037°53'0 0.0
2014-Oct-19 23:26N 44°40' E 037°53'0 0.0
2014-Oct-19 22:32N 44°40' E 037°53'0 0.0
2014-Oct-19 21:33N 44°40' E 037°53'0 0.0
2014-Oct-19 20:33N 44°40' E 037°53'0 0.0
2014-Oct-19 19:32N 44°40' E 037°53'0 0.0
2014-Oct-19 18:31N 44°40' E 037°53'0 0.0
2014-Oct-19 17:27N 44°40' E 037°53'0 0.0
2014-Oct-19 16:31N 44°40' E 037°53'0 0.0
2014-Oct-19 15:31N 44°40' E 037°53'0 0.0
2014-Oct-19 14:33N 44°40' E 037°53'0 0.0
2014-Oct-19 13:27N 44°40' E 037°53'0 0.0
2014-Oct-19 12:31N 44°40' E 037°53'2 2.1
2014-Oct-19 11:33N 44°41' E 037°51'3 3.5
2014-Oct-19 10:33N 44°44' E 037°48'0 0.0
2014-Oct-19 09:33N 44°44' E 037°48'0 0.0
2014-Oct-19 08:32N 44°44' E 037°48'0 0.0
2014-Oct-19 07:33N 44°44' E 037°48'0 0.0
2014-Oct-19 06:31N 44°44' E 037°48'0 0.0
2014-Oct-19 05:33N 44°44' E 037°48'0 0.0
2014-Oct-19 04:30N 44°44' E 037°48'0 0.0
2014-Oct-19 03:33N 44°44' E 037°48'0 0.0
2014-Oct-19 02:32N 44°44' E 037°48'0 0.0
2014-Oct-19 01:28N 44°44' E 037°48'0 0.0
2014-Oct-19 00:29N 44°44' E 037°48'0 0.0
2014-Oct-18 23:26N 44°44' E 037°48'0 0.0
2014-Oct-18 22:27N 44°44' E 037°48'0 0.0
2014-Oct-18 21:33N 44°44' E 037°48'0 0.0
2014-Oct-18 20:32N 44°44' E 037°48'0 0.0
2014-Oct-18 19:32N 44°44' E 037°48'0 0.0
2014-Oct-18 18:28N 44°44' E 037°48'0 0.0
2014-Oct-18 17:28N 44°44' E 037°48'0 0.0
2014-Oct-18 16:29N 44°44' E 037°48'0 0.0
2014-Oct-18 15:18N 44°44' E 037°48'0 0.0
2014-Oct-18 14:32N 44°44' E 037°48'0 0.0
2014-Oct-18 13:32N 44°44' E 037°48'0 0.0
2014-Oct-18 12:29N 44°44' E 037°48'0 0.0
2014-Oct-18 11:27N 44°44' E 037°48'0 0.0
2014-Oct-18 10:28N 44°44' E 037°48'0 0.0
2014-Oct-18 09:32N 44°44' E 037°48'0 0.0
2014-Oct-18 08:31N 44°44' E 037°48'0 0.0
2014-Oct-18 07:32N 44°44' E 037°48'0 0.0
2014-Oct-18 06:31N 44°44' E 037°48'0 0.0
2014-Oct-18 05:33N 44°44' E 037°48'0 0.0
2014-Oct-18 04:29N 44°44' E 037°48'0 0.0
2014-Oct-18 03:32N 44°44' E 037°48'0 0.0
2014-Oct-18 02:29N 44°44' E 037°48'0 0.0
2014-Oct-18 01:31N 44°44' E 037°48'0 0.0
2014-Oct-18 00:28N 44°44' E 037°48'0 0.0
2014-Oct-17 23:32N 44°44' E 037°48'0 0.0
2014-Oct-17 22:33N 44°44' E 037°48'0 0.0
2014-Oct-17 21:32N 44°44' E 037°48'0 0.0
2014-Oct-17 20:31N 44°44' E 037°48'0 0.0
2014-Oct-17 19:28N 44°44' E 037°48'0 0.0
2014-Oct-17 18:31N 44°44' E 037°48'0 0.0
2014-Oct-17 17:28N 44°44' E 037°48'0 0.0
2014-Oct-17 16:30N 44°44' E 037°48'0 0.0
2014-Oct-17 15:31N 44°44' E 037°48'0 0.0
2014-Oct-17 14:32N 44°44' E 037°48'0 0.0
2014-Oct-17 13:33N 44°44' E 037°48'0 0.0
2014-Oct-17 12:25N 44°44' E 037°48'0 0.0
2014-Oct-17 11:31N 44°44' E 037°48'0 0.0
2014-Oct-17 10:31N 44°44' E 037°48'0 0.0
2014-Oct-17 09:32N 44°44' E 037°48'0 0.0
2014-Oct-17 08:31N 44°44' E 037°48'0 0.0
2014-Oct-17 07:32N 44°44' E 037°48'0 0.0
2014-Oct-17 06:33N 44°44' E 037°48'0 0.0
2014-Oct-17 05:32N 44°44' E 037°48'0 0.0
2014-Oct-17 04:33N 44°44' E 037°48'0 0.0
2014-Oct-17 03:30N 44°44' E 037°48'0 0.0
2014-Oct-17 02:32N 44°44' E 037°48'0 0.0
2014-Oct-17 01:33N 44°44' E 037°48'0 0.0
2014-Oct-17 00:31N 44°44' E 037°48'0 0.0
2014-Oct-16 23:30N 44°44' E 037°48'0 0.0
2014-Oct-16 22:33N 44°44' E 037°48'0 0.0
2014-Oct-16 21:31N 44°44' E 037°48'0 0.0
2014-Oct-16 20:32N 44°44' E 037°48'0 0.0
2014-Oct-16 19:32N 44°44' E 037°48'0 0.0
2014-Oct-16 18:33N 44°44' E 037°48'0 0.0
2014-Oct-16 17:33N 44°44' E 037°48'0 0.0
2014-Oct-16 16:28N 44°44' E 037°48'0 0.0
2014-Oct-16 15:33N 44°44' E 037°48'0 0.0
2014-Oct-16 14:31N 44°44' E 037°48'0 0.0
2014-Oct-16 13:32N 44°44' E 037°48'0 0.0
2014-Oct-16 12:30N 44°44' E 037°48'0 0.0
2014-Oct-16 11:32N 44°44' E 037°48'0 0.0
2014-Oct-16 10:28N 44°44' E 037°48'0 0.0
2014-Oct-16 09:32N 44°44' E 037°48'0 0.0
2014-Oct-16 08:32N 44°44' E 037°48'0 0.0
2014-Oct-16 07:31N 44°44' E 037°48'0 0.0
2014-Oct-16 06:32N 44°44' E 037°48'0 0.0
2014-Oct-16 05:33N 44°44' E 037°48'0 0.0
2014-Oct-16 04:32N 44°44' E 037°48'0 0.0
2014-Oct-16 03:31N 44°44' E 037°48'0 0.0
2014-Oct-16 02:33N 44°44' E 037°48'0 0.0
2014-Oct-16 01:26N 44°44' E 037°48'0 0.0
2014-Oct-16 00:26N 44°44' E 037°48'0 0.0
2014-Oct-15 23:33N 44°44' E 037°48'  
Track history (hours):
 
Tides and Currents Weather Stations Pressure Air Temp Water Temp Dewpoint Dewpoint Depression Visibility Wind Speed Wind Dir Waves Ship Positions

Boras

Last reported at 2014-Oct-25 22:33 UTC. Time now 2014-Oct-25 23:33 UTC.
Position N 40°58' E 028°56'.

Length 103 m; draft 7.4 m.

Type: Cargo ship. MMSI: 271000352.

Date/timePositionNaut miles runAvg speedWind from/ knotsBaromVisibWave heightAir tempDewpointWater temp
2014-Oct-25 22:33N 40°58' E 028°56'24 7.7
2014-Oct-25 19:29N 41°15' E 029°18'6 6.2
2014-Oct-25 18:33N 41°14' E 029°25'6 6.4
2014-Oct-25 17:34N 41°15' E 029°34'7 7.2
2014-Oct-25 16:31N 41°13' E 029°44'  
2014-Oct-20 04:28N 44°17' E 037°39'7 8.1
2014-Oct-20 03:33N 44°24' E 037°42'8 7.6
2014-Oct-20 02:33N 44°31' E 037°45'8 7.6
2014-Oct-20 01:33N 44°38' E 037°50'3 2.6
2014-Oct-20 00:28N 44°40' E 037°53'0 0.0
2014-Oct-19 23:26N 44°40' E 037°53'0 0.0
2014-Oct-19 22:32N 44°40' E 037°53'0 0.0
2014-Oct-19 21:33N 44°40' E 037°53'0 0.0
2014-Oct-19 20:33N 44°40' E 037°53'0 0.0
2014-Oct-19 19:32N 44°40' E 037°53'0 0.0
2014-Oct-19 18:31N 44°40' E 037°53'0 0.0
2014-Oct-19 17:27N 44°40' E 037°53'0 0.0
2014-Oct-19 16:31N 44°40' E 037°53'0 0.0
2014-Oct-19 15:31N 44°40' E 037°53'0 0.0
2014-Oct-19 14:33N 44°40' E 037°53'0 0.0
2014-Oct-19 13:27N 44°40' E 037°53'0 0.0
2014-Oct-19 12:31N 44°40' E 037°53'2 2.1
2014-Oct-19 11:33N 44°41' E 037°51'3 3.5
2014-Oct-19 10:33N 44°44' E 037°48'0 0.0
2014-Oct-19 09:33N 44°44' E 037°48'0 0.0
2014-Oct-19 08:32N 44°44' E 037°48'0 0.0
2014-Oct-19 07:33N 44°44' E 037°48'0 0.0
2014-Oct-19 06:31N 44°44' E 037°48'0 0.0
2014-Oct-19 05:33N 44°44' E 037°48'0 0.0
2014-Oct-19 04:30N 44°44' E 037°48'0 0.0
2014-Oct-19 03:33N 44°44' E 037°48'0 0.0
2014-Oct-19 02:32N 44°44' E 037°48'0 0.0
2014-Oct-19 01:28N 44°44' E 037°48'0 0.0
2014-Oct-19 00:29N 44°44' E 037°48'0 0.0
2014-Oct-18 23:26N 44°44' E 037°48'0 0.0
2014-Oct-18 22:27N 44°44' E 037°48'0 0.0
2014-Oct-18 21:33N 44°44' E 037°48'0 0.0
2014-Oct-18 20:32N 44°44' E 037°48'0 0.0
2014-Oct-18 19:32N 44°44' E 037°48'0 0.0
2014-Oct-18 18:28N 44°44' E 037°48'0 0.0
2014-Oct-18 17:28N 44°44' E 037°48'0 0.0
2014-Oct-18 16:29N 44°44' E 037°48'0 0.0
2014-Oct-18 15:18N 44°44' E 037°48'0 0.0
2014-Oct-18 14:32N 44°44' E 037°48'0 0.0
2014-Oct-18 13:32N 44°44' E 037°48'0 0.0
2014-Oct-18 12:29N 44°44' E 037°48'0 0.0
2014-Oct-18 11:27N 44°44' E 037°48'0 0.0
2014-Oct-18 10:28N 44°44' E 037°48'0 0.0
2014-Oct-18 09:32N 44°44' E 037°48'0 0.0
2014-Oct-18 08:31N 44°44' E 037°48'0 0.0
2014-Oct-18 07:32N 44°44' E 037°48'0 0.0
2014-Oct-18 06:31N 44°44' E 037°48'0 0.0
2014-Oct-18 05:33N 44°44' E 037°48'0 0.0
2014-Oct-18 04:29N 44°44' E 037°48'0 0.0
2014-Oct-18 03:32N 44°44' E 037°48'0 0.0
2014-Oct-18 02:29N 44°44' E 037°48'0 0.0
2014-Oct-18 01:31N 44°44' E 037°48'0 0.0
2014-Oct-18 00:28N 44°44' E 037°48'0 0.0
2014-Oct-17 23:32N 44°44' E 037°48'0 0.0
2014-Oct-17 22:33N 44°44' E 037°48'0 0.0
2014-Oct-17 21:32N 44°44' E 037°48'0 0.0
2014-Oct-17 20:31N 44°44' E 037°48'0 0.0
2014-Oct-17 19:28N 44°44' E 037°48'0 0.0
2014-Oct-17 18:31N 44°44' E 037°48'0 0.0
2014-Oct-17 17:28N 44°44' E 037°48'0 0.0
2014-Oct-17 16:30N 44°44' E 037°48'0 0.0
2014-Oct-17 15:31N 44°44' E 037°48'0 0.0
2014-Oct-17 14:32N 44°44' E 037°48'0 0.0
2014-Oct-17 13:33N 44°44' E 037°48'0 0.0
2014-Oct-17 12:25N 44°44' E 037°48'0 0.0
2014-Oct-17 11:31N 44°44' E 037°48'0 0.0
2014-Oct-17 10:31N 44°44' E 037°48'0 0.0
2014-Oct-17 09:32N 44°44' E 037°48'0 0.0
2014-Oct-17 08:31N 44°44' E 037°48'0 0.0
2014-Oct-17 07:32N 44°44' E 037°48'0 0.0
2014-Oct-17 06:33N 44°44' E 037°48'0 0.0
2014-Oct-17 05:32N 44°44' E 037°48'0 0.0
2014-Oct-17 04:33N 44°44' E 037°48'0 0.0
2014-Oct-17 03:30N 44°44' E 037°48'0 0.0
2014-Oct-17 02:32N 44°44' E 037°48'0 0.0
2014-Oct-17 01:33N 44°44' E 037°48'0 0.0
2014-Oct-17 00:31N 44°44' E 037°48'0 0.0
2014-Oct-16 23:30N 44°44' E 037°48'0 0.0
2014-Oct-16 22:33N 44°44' E 037°48'0 0.0
2014-Oct-16 21:31N 44°44' E 037°48'0 0.0
2014-Oct-16 20:32N 44°44' E 037°48'0 0.0
2014-Oct-16 19:32N 44°44' E 037°48'0 0.0
2014-Oct-16 18:33N 44°44' E 037°48'0 0.0
2014-Oct-16 17:33N 44°44' E 037°48'0 0.0
2014-Oct-16 16:28N 44°44' E 037°48'0 0.0
2014-Oct-16 15:33N 44°44' E 037°48'0 0.0
2014-Oct-16 14:31N 44°44' E 037°48'0 0.0
2014-Oct-16 13:32N 44°44' E 037°48'0 0.0
2014-Oct-16 12:30N 44°44' E 037°48'0 0.0
2014-Oct-16 11:32N 44°44' E 037°48'0 0.0
2014-Oct-16 10:28N 44°44' E 037°48'0 0.0
2014-Oct-16 09:32N 44°44' E 037°48'0 0.0
2014-Oct-16 08:32N 44°44' E 037°48'0 0.0
2014-Oct-16 07:31N 44°44' E 037°48'0 0.0
2014-Oct-16 06:32N 44°44' E 037°48'0 0.0
2014-Oct-16 05:33N 44°44' E 037°48'0 0.0
2014-Oct-16 04:32N 44°44' E 037°48'0 0.0
2014-Oct-16 03:31N 44°44' E 037°48'0 0.0
2014-Oct-16 02:33N 44°44' E 037°48'0 0.0
2014-Oct-16 01:26N 44°44' E 037°48'0 0.0
2014-Oct-16 00:26N 44°44' E 037°48'0 0.0
2014-Oct-15 23:33N 44°44' E 037°48'  

Dump ship's entire track history